sensor_id;sensor_type;location;lat;lon;timestamp;P1;durP1;ratioP1;P2;durP2;ratioP2
65831;SDS011;52593;42.648;23.332;2023-04-25T00:01:45;8.25;;;3.60;;
65831;SDS011;52593;42.648;23.332;2023-04-25T00:04:11;9.10;;;3.80;;
65831;SDS011;52593;42.648;23.332;2023-04-25T00:06:36;7.40;;;3.47;;
65831;SDS011;52593;42.648;23.332;2023-04-25T00:09:05;8.40;;;3.47;;
65831;SDS011;52593;42.648;23.332;2023-04-25T00:11:35;8.15;;;3.72;;
65831;SDS011;52593;42.648;23.332;2023-04-25T00:14:00;7.77;;;3.63;;
65831;SDS011;52593;42.648;23.332;2023-04-25T00:16:27;8.70;;;3.75;;
65831;SDS011;52593;42.648;23.332;2023-04-25T00:18:54;7.90;;;3.70;;
65831;SDS011;52593;42.648;23.332;2023-04-25T00:21:20;9.47;;;3.50;;
65831;SDS011;52593;42.648;23.332;2023-04-25T00:23:46;7.93;;;3.40;;
65831;SDS011;52593;42.648;23.332;2023-04-25T00:26:12;8.40;;;3.78;;
65831;SDS011;52593;42.648;23.332;2023-04-25T00:28:38;7.73;;;3.80;;
65831;SDS011;52593;42.648;23.332;2023-04-25T00:31:04;8.77;;;3.97;;
65831;SDS011;52593;42.648;23.332;2023-04-25T00:33:29;9.03;;;4.20;;
65831;SDS011;52593;42.648;23.332;2023-04-25T00:35:55;8.57;;;4.10;;
65831;SDS011;52593;42.648;23.332;2023-04-25T00:38:20;9.17;;;3.87;;
65831;SDS011;52593;42.648;23.332;2023-04-25T00:40:46;10.07;;;3.95;;
65831;SDS011;52593;42.648;23.332;2023-04-25T00:43:12;9.13;;;4.97;;
65831;SDS011;52593;42.648;23.332;2023-04-25T00:45:38;9.83;;;4.40;;
65831;SDS011;52593;42.648;23.332;2023-04-25T00:48:04;9.77;;;4.13;;
65831;SDS011;52593;42.648;23.332;2023-04-25T00:50:30;10.07;;;4.60;;
65831;SDS011;52593;42.648;23.332;2023-04-25T00:52:58;10.48;;;4.60;;
65831;SDS011;52593;42.648;23.332;2023-04-25T00:55:23;8.40;;;4.10;;
65831;SDS011;52593;42.648;23.332;2023-04-25T00:57:49;10.90;;;4.80;;
65831;SDS011;52593;42.648;23.332;2023-04-25T01:00:15;11.82;;;4.75;;
65831;SDS011;52593;42.648;23.332;2023-04-25T01:02:40;10.77;;;4.47;;
65831;SDS011;52593;42.648;23.332;2023-04-25T01:05:07;11.20;;;4.90;;
65831;SDS011;52593;42.648;23.332;2023-04-25T01:07:33;11.05;;;4.68;;
65831;SDS011;52593;42.648;23.332;2023-04-25T01:09:59;11.03;;;4.97;;
65831;SDS011;52593;42.648;23.332;2023-04-25T01:12:24;11.52;;;5.25;;
65831;SDS011;52593;42.648;23.332;2023-04-25T01:14:50;12.10;;;5.53;;
65831;SDS011;52593;42.648;23.332;2023-04-25T01:17:15;11.13;;;5.10;;
65831;SDS011;52593;42.648;23.332;2023-04-25T01:19:42;11.45;;;5.30;;
65831;SDS011;52593;42.648;23.332;2023-04-25T01:22:08;10.93;;;5.60;;
65831;SDS011;52593;42.648;23.332;2023-04-25T01:24:35;11.63;;;5.20;;
65831;SDS011;52593;42.648;23.332;2023-04-25T01:27:02;12.48;;;5.38;;
65831;SDS011;52593;42.648;23.332;2023-04-25T01:29:28;10.57;;;4.95;;
65831;SDS011;52593;42.648;23.332;2023-04-25T01:31:54;11.00;;;4.17;;
65831;SDS011;52593;42.648;23.332;2023-04-25T01:34:19;9.73;;;4.00;;
65831;SDS011;52593;42.648;23.332;2023-04-25T01:36:47;10.30;;;4.57;;
65831;SDS011;52593;42.648;23.332;2023-04-25T01:39:14;12.25;;;5.30;;
65831;SDS011;52593;42.648;23.332;2023-04-25T01:41:40;12.03;;;5.00;;
65831;SDS011;52593;42.648;23.332;2023-04-25T01:44:06;10.75;;;4.70;;
65831;SDS011;52593;42.648;23.332;2023-04-25T01:46:32;10.63;;;4.73;;
65831;SDS011;52593;42.648;23.332;2023-04-25T01:48:58;10.27;;;4.47;;
65831;SDS011;52593;42.648;23.332;2023-04-25T01:51:24;8.90;;;4.10;;
65831;SDS011;52593;42.648;23.332;2023-04-25T01:53:49;11.10;;;4.33;;
65831;SDS011;52593;42.648;23.332;2023-04-25T01:56:15;11.15;;;5.10;;
65831;SDS011;52593;42.648;23.332;2023-04-25T01:58:43;11.23;;;4.70;;
65831;SDS011;52593;42.648;23.332;2023-04-25T02:01:08;12.30;;;5.27;;
65831;SDS011;52593;42.648;23.332;2023-04-25T02:03:34;13.10;;;4.93;;
65831;SDS011;52593;42.648;23.332;2023-04-25T02:05:59;14.15;;;6.13;;
65831;SDS011;52593;42.648;23.332;2023-04-25T02:08:25;12.00;;;5.57;;
65831;SDS011;52593;42.648;23.332;2023-04-25T02:10:51;11.32;;;5.47;;
65831;SDS011;52593;42.648;23.332;2023-04-25T02:13:17;14.23;;;5.17;;
65831;SDS011;52593;42.648;23.332;2023-04-25T02:15:42;12.13;;;5.40;;
65831;SDS011;52593;42.648;23.332;2023-04-25T02:18:08;10.15;;;4.45;;
65831;SDS011;52593;42.648;23.332;2023-04-25T02:20:35;9.80;;;4.82;;
65831;SDS011;52593;42.648;23.332;2023-04-25T02:23:01;10.80;;;5.03;;
65831;SDS011;52593;42.648;23.332;2023-04-25T02:25:26;11.82;;;4.78;;
65831;SDS011;52593;42.648;23.332;2023-04-25T02:27:52;11.00;;;4.77;;
65831;SDS011;52593;42.648;23.332;2023-04-25T02:30:17;11.20;;;5.00;;
65831;SDS011;52593;42.648;23.332;2023-04-25T02:32:43;10.88;;;5.40;;
65831;SDS011;52593;42.648;23.332;2023-04-25T02:35:09;11.00;;;5.57;;
65831;SDS011;52593;42.648;23.332;2023-04-25T02:37:35;12.63;;;5.50;;
65831;SDS011;52593;42.648;23.332;2023-04-25T02:40:01;11.13;;;5.33;;
65831;SDS011;52593;42.648;23.332;2023-04-25T02:42:28;12.07;;;5.88;;
65831;SDS011;52593;42.648;23.332;2023-04-25T02:44:53;11.80;;;5.63;;
65831;SDS011;52593;42.648;23.332;2023-04-25T02:47:19;13.98;;;5.43;;
65831;SDS011;52593;42.648;23.332;2023-04-25T02:49:44;10.77;;;5.30;;
65831;SDS011;52593;42.648;23.332;2023-04-25T02:52:10;12.13;;;5.27;;
65831;SDS011;52593;42.648;23.332;2023-04-25T02:54:36;11.38;;;5.60;;
65831;SDS011;52593;42.648;23.332;2023-04-25T02:57:01;12.67;;;5.43;;
65831;SDS011;52593;42.648;23.332;2023-04-25T02:59:27;12.20;;;6.25;;
65831;SDS011;52593;42.648;23.332;2023-04-25T03:01:53;13.83;;;5.80;;
65831;SDS011;52593;42.648;23.332;2023-04-25T03:04:18;13.17;;;6.00;;
65831;SDS011;52593;42.648;23.332;2023-04-25T03:06:44;14.20;;;6.53;;
65831;SDS011;52593;42.648;23.332;2023-04-25T03:09:09;12.97;;;6.80;;
65831;SDS011;52593;42.648;23.332;2023-04-25T03:11:35;13.57;;;6.70;;
65831;SDS011;52593;42.648;23.332;2023-04-25T03:14:01;12.90;;;6.00;;
65831;SDS011;52593;42.648;23.332;2023-04-25T03:16:27;12.60;;;6.05;;
65831;SDS011;52593;42.648;23.332;2023-04-25T03:18:52;11.80;;;6.20;;
65831;SDS011;52593;42.648;23.332;2023-04-25T03:21:18;11.93;;;6.00;;
65831;SDS011;52593;42.648;23.332;2023-04-25T03:23:43;14.30;;;7.23;;
65831;SDS011;52593;42.648;23.332;2023-04-25T03:26:08;11.57;;;5.57;;
65831;SDS011;52593;42.648;23.332;2023-04-25T03:28:34;10.05;;;5.10;;
65831;SDS011;52593;42.648;23.332;2023-04-25T03:31:00;10.17;;;4.70;;
65831;SDS011;52593;42.648;23.332;2023-04-25T03:33:25;12.57;;;5.10;;
65831;SDS011;52593;42.648;23.332;2023-04-25T03:35:50;10.77;;;4.97;;
65831;SDS011;52593;42.648;23.332;2023-04-25T03:38:16;11.13;;;4.97;;
65831;SDS011;52593;42.648;23.332;2023-04-25T03:40:42;10.52;;;4.93;;
65831;SDS011;52593;42.648;23.332;2023-04-25T03:43:07;12.73;;;4.77;;
65831;SDS011;52593;42.648;23.332;2023-04-25T03:45:33;12.60;;;5.33;;
65831;SDS011;52593;42.648;23.332;2023-04-25T03:47:58;13.52;;;5.82;;
65831;SDS011;52593;42.648;23.332;2023-04-25T03:50:23;12.90;;;5.50;;
65831;SDS011;52593;42.648;23.332;2023-04-25T03:52:49;14.30;;;6.70;;
65831;SDS011;52593;42.648;23.332;2023-04-25T03:55:14;14.33;;;6.23;;
65831;SDS011;52593;42.648;23.332;2023-04-25T03:57:40;14.00;;;6.40;;
65831;SDS011;52593;42.648;23.332;2023-04-25T04:00:06;13.30;;;5.77;;
65831;SDS011;52593;42.648;23.332;2023-04-25T04:02:34;11.82;;;5.35;;
65831;SDS011;52593;42.648;23.332;2023-04-25T04:05:01;12.63;;;5.90;;
65831;SDS011;52593;42.648;23.332;2023-04-25T04:07:27;11.45;;;5.32;;
65831;SDS011;52593;42.648;23.332;2023-04-25T04:09:53;14.23;;;7.20;;
65831;SDS011;52593;42.648;23.332;2023-04-25T04:12:18;11.67;;;5.60;;
65831;SDS011;52593;42.648;23.332;2023-04-25T04:14:43;13.43;;;6.03;;
65831;SDS011;52593;42.648;23.332;2023-04-25T04:17:09;13.73;;;6.23;;
65831;SDS011;52593;42.648;23.332;2023-04-25T04:19:34;11.57;;;5.27;;
65831;SDS011;52593;42.648;23.332;2023-04-25T04:22:00;11.70;;;5.70;;
65831;SDS011;52593;42.648;23.332;2023-04-25T04:24:25;12.93;;;5.85;;
65831;SDS011;52593;42.648;23.332;2023-04-25T04:26:50;11.73;;;5.80;;
65831;SDS011;52593;42.648;23.332;2023-04-25T04:29:17;13.65;;;5.97;;
65831;SDS011;52593;42.648;23.332;2023-04-25T04:31:48;12.60;;;5.80;;
65831;SDS011;52593;42.648;23.332;2023-04-25T04:34:15;12.43;;;5.95;;
65831;SDS011;52593;42.648;23.332;2023-04-25T04:36:47;13.13;;;6.40;;
65831;SDS011;52593;42.648;23.332;2023-04-25T04:39:13;10.82;;;5.53;;
65831;SDS011;52593;42.648;23.332;2023-04-25T04:41:39;11.30;;;5.13;;
65831;SDS011;52593;42.648;23.332;2023-04-25T04:44:05;12.85;;;5.75;;
65831;SDS011;52593;42.648;23.332;2023-04-25T04:46:31;11.10;;;5.07;;
65831;SDS011;52593;42.648;23.332;2023-04-25T04:49:02;12.23;;;5.70;;
65831;SDS011;52593;42.648;23.332;2023-04-25T04:51:29;11.65;;;5.60;;
65831;SDS011;52593;42.648;23.332;2023-04-25T04:53:56;11.27;;;5.72;;
65831;SDS011;52593;42.648;23.332;2023-04-25T04:56:23;10.35;;;5.38;;
65831;SDS011;52593;42.648;23.332;2023-04-25T04:58:50;12.35;;;5.53;;
65831;SDS011;52593;42.648;23.332;2023-04-25T05:01:16;10.90;;;5.40;;
65831;SDS011;52593;42.648;23.332;2023-04-25T05:03:41;10.83;;;4.90;;
65831;SDS011;52593;42.648;23.332;2023-04-25T05:06:06;10.00;;;4.70;;
65831;SDS011;52593;42.648;23.332;2023-04-25T05:08:33;8.93;;;4.30;;
65831;SDS011;52593;42.648;23.332;2023-04-25T05:10:59;9.98;;;4.43;;
65831;SDS011;52593;42.648;23.332;2023-04-25T05:13:24;13.30;;;5.63;;
65831;SDS011;52593;42.648;23.332;2023-04-25T05:15:50;11.47;;;5.40;;
65831;SDS011;52593;42.648;23.332;2023-04-25T05:18:15;12.80;;;6.13;;
65831;SDS011;52593;42.648;23.332;2023-04-25T05:20:40;11.55;;;5.18;;
65831;SDS011;52593;42.648;23.332;2023-04-25T05:23:06;11.00;;;5.20;;
65831;SDS011;52593;42.648;23.332;2023-04-25T05:25:31;12.57;;;5.30;;
65831;SDS011;52593;42.648;23.332;2023-04-25T05:27:56;10.60;;;5.10;;
65831;SDS011;52593;42.648;23.332;2023-04-25T05:30:23;15.45;;;7.35;;
65831;SDS011;52593;42.648;23.332;2023-04-25T05:32:48;11.77;;;5.60;;
65831;SDS011;52593;42.648;23.332;2023-04-25T05:35:14;13.80;;;6.33;;
65831;SDS011;52593;42.648;23.332;2023-04-25T05:37:39;12.32;;;6.07;;
65831;SDS011;52593;42.648;23.332;2023-04-25T05:40:05;13.27;;;6.43;;
65831;SDS011;52593;42.648;23.332;2023-04-25T05:42:31;15.93;;;6.28;;
65831;SDS011;52593;42.648;23.332;2023-04-25T05:44:57;13.37;;;6.50;;
65831;SDS011;52593;42.648;23.332;2023-04-25T05:47:23;16.42;;;6.65;;
65831;SDS011;52593;42.648;23.332;2023-04-25T05:49:48;13.93;;;6.30;;
65831;SDS011;52593;42.648;23.332;2023-04-25T05:52:13;15.83;;;7.30;;
65831;SDS011;52593;42.648;23.332;2023-04-25T05:54:40;17.42;;;8.02;;
65831;SDS011;52593;42.648;23.332;2023-04-25T05:57:05;15.03;;;7.13;;
65831;SDS011;52593;42.648;23.332;2023-04-25T05:59:31;16.05;;;6.68;;
65831;SDS011;52593;42.648;23.332;2023-04-25T06:01:56;14.17;;;6.97;;
65831;SDS011;52593;42.648;23.332;2023-04-25T06:04:22;13.13;;;6.27;;
65831;SDS011;52593;42.648;23.332;2023-04-25T06:06:47;13.53;;;6.43;;
65831;SDS011;52593;42.648;23.332;2023-04-25T06:09:12;11.60;;;5.60;;
65831;SDS011;52593;42.648;23.332;2023-04-25T06:11:38;14.60;;;6.00;;
65831;SDS011;52593;42.648;23.332;2023-04-25T06:14:03;12.33;;;5.67;;
65831;SDS011;52593;42.648;23.332;2023-04-25T06:16:29;10.23;;;4.90;;
65831;SDS011;52593;42.648;23.332;2023-04-25T06:18:54;11.77;;;4.80;;
65831;SDS011;52593;42.648;23.332;2023-04-25T06:21:19;11.63;;;4.77;;
65831;SDS011;52593;42.648;23.332;2023-04-25T06:23:45;11.67;;;5.50;;
65831;SDS011;52593;42.648;23.332;2023-04-25T06:26:10;13.67;;;5.63;;
65831;SDS011;52593;42.648;23.332;2023-04-25T06:28:36;13.60;;;5.50;;
65831;SDS011;52593;42.648;23.332;2023-04-25T06:31:01;13.95;;;6.30;;
65831;SDS011;52593;42.648;23.332;2023-04-25T06:33:26;13.93;;;6.57;;
65831;SDS011;52593;42.648;23.332;2023-04-25T06:35:52;12.57;;;6.10;;
65831;SDS011;52593;42.648;23.332;2023-04-25T06:38:17;11.43;;;5.93;;
65831;SDS011;52593;42.648;23.332;2023-04-25T06:40:43;12.05;;;5.45;;
65831;SDS011;52593;42.648;23.332;2023-04-25T06:43:08;14.70;;;5.73;;
65831;SDS011;52593;42.648;23.332;2023-04-25T06:45:33;14.50;;;6.63;;
65831;SDS011;52593;42.648;23.332;2023-04-25T06:47:59;12.43;;;5.60;;
65831;SDS011;52593;42.648;23.332;2023-04-25T06:50:24;12.90;;;5.60;;
65831;SDS011;52593;42.648;23.332;2023-04-25T06:52:50;12.43;;;5.57;;
65831;SDS011;52593;42.648;23.332;2023-04-25T06:55:15;9.97;;;4.73;;
65831;SDS011;52593;42.648;23.332;2023-04-25T06:57:41;11.27;;;4.80;;
65831;SDS011;52593;42.648;23.332;2023-04-25T07:00:06;9.60;;;4.50;;
65831;SDS011;52593;42.648;23.332;2023-04-25T07:02:34;9.90;;;4.63;;
65831;SDS011;52593;42.648;23.332;2023-04-25T07:05:00;11.35;;;4.22;;
65831;SDS011;52593;42.648;23.332;2023-04-25T07:07:26;11.33;;;5.03;;
65831;SDS011;52593;42.648;23.332;2023-04-25T07:09:51;9.82;;;5.10;;
65831;SDS011;52593;42.648;23.332;2023-04-25T07:12:17;8.60;;;4.53;;
65831;SDS011;52593;42.648;23.332;2023-04-25T07:14:42;12.90;;;5.43;;
65831;SDS011;52593;42.648;23.332;2023-04-25T07:17:08;13.17;;;5.30;;
65831;SDS011;52593;42.648;23.332;2023-04-25T07:19:33;8.70;;;4.70;;
65831;SDS011;52593;42.648;23.332;2023-04-25T07:21:58;9.80;;;4.90;;
65831;SDS011;52593;42.648;23.332;2023-04-25T07:24:24;11.50;;;5.13;;
65831;SDS011;52593;42.648;23.332;2023-04-25T07:26:49;11.75;;;5.80;;
65831;SDS011;52593;42.648;23.332;2023-04-25T07:29:15;9.50;;;4.60;;
65831;SDS011;52593;42.648;23.332;2023-04-25T07:31:40;14.03;;;7.17;;
65831;SDS011;52593;42.648;23.332;2023-04-25T07:34:05;10.73;;;4.70;;
65831;SDS011;52593;42.648;23.332;2023-04-25T07:36:31;9.57;;;4.30;;
65831;SDS011;52593;42.648;23.332;2023-04-25T07:38:56;9.80;;;4.40;;
65831;SDS011;52593;42.648;23.332;2023-04-25T07:41:22;10.70;;;4.40;;
65831;SDS011;52593;42.648;23.332;2023-04-25T07:43:48;10.50;;;4.32;;
65831;SDS011;52593;42.648;23.332;2023-04-25T07:46:13;12.67;;;4.17;;
65831;SDS011;52593;42.648;23.332;2023-04-25T07:48:38;11.80;;;4.47;;
65831;SDS011;52593;42.648;23.332;2023-04-25T07:51:04;9.20;;;4.63;;
65831;SDS011;52593;42.648;23.332;2023-04-25T07:53:30;12.23;;;4.53;;
65831;SDS011;52593;42.648;23.332;2023-04-25T07:55:57;12.90;;;5.07;;
65831;SDS011;52593;42.648;23.332;2023-04-25T07:58:22;11.03;;;4.60;;
65831;SDS011;52593;42.648;23.332;2023-04-25T08:00:48;10.30;;;4.80;;
65831;SDS011;52593;42.648;23.332;2023-04-25T08:03:13;11.67;;;4.77;;
65831;SDS011;52593;42.648;23.332;2023-04-25T08:05:39;12.93;;;5.32;;
65831;SDS011;52593;42.648;23.332;2023-04-25T08:08:04;11.73;;;5.37;;
65831;SDS011;52593;42.648;23.332;2023-04-25T08:10:31;10.27;;;5.28;;
65831;SDS011;52593;42.648;23.332;2023-04-25T08:12:57;14.53;;;6.30;;
65831;SDS011;52593;42.648;23.332;2023-04-25T08:15:22;15.45;;;6.53;;
65831;SDS011;52593;42.648;23.332;2023-04-25T08:17:48;11.43;;;4.80;;
65831;SDS011;52593;42.648;23.332;2023-04-25T08:20:13;8.80;;;4.37;;
65831;SDS011;52593;42.648;23.332;2023-04-25T08:22:39;9.07;;;4.90;;
65831;SDS011;52593;42.648;23.332;2023-04-25T08:25:04;10.65;;;4.55;;
65831;SDS011;52593;42.648;23.332;2023-04-25T08:27:30;11.80;;;4.77;;
65831;SDS011;52593;42.648;23.332;2023-04-25T08:29:55;9.70;;;4.83;;
65831;SDS011;52593;42.648;23.332;2023-04-25T08:32:21;12.55;;;5.82;;
65831;SDS011;52593;42.648;23.332;2023-04-25T08:34:46;9.97;;;4.27;;
65831;SDS011;52593;42.648;23.332;2023-04-25T08:37:12;7.67;;;3.87;;
65831;SDS011;52593;42.648;23.332;2023-04-25T08:39:37;8.33;;;3.20;;
65831;SDS011;52593;42.648;23.332;2023-04-25T08:42:04;5.68;;;2.72;;
65831;SDS011;52593;42.648;23.332;2023-04-25T08:44:35;6.15;;;2.75;;
65831;SDS011;52593;42.648;23.332;2023-04-25T08:47:03;7.93;;;3.73;;
65831;SDS011;52593;42.648;23.332;2023-04-25T08:49:32;7.10;;;2.90;;
65831;SDS011;52593;42.648;23.332;2023-04-25T08:52:02;7.32;;;2.95;;
65831;SDS011;52593;42.648;23.332;2023-04-25T08:54:31;5.83;;;2.80;;
65831;SDS011;52593;42.648;23.332;2023-04-25T08:56:58;8.50;;;3.60;;
65831;SDS011;52593;42.648;23.332;2023-04-25T08:59:29;6.00;;;3.08;;
65831;SDS011;52593;42.648;23.332;2023-04-25T09:01:55;13.52;;;5.53;;
65831;SDS011;52593;42.648;23.332;2023-04-25T09:04:20;18.17;;;6.93;;
65831;SDS011;52593;42.648;23.332;2023-04-25T09:06:46;12.47;;;4.67;;
65831;SDS011;52593;42.648;23.332;2023-04-25T09:09:12;12.77;;;5.75;;
65831;SDS011;52593;42.648;23.332;2023-04-25T09:11:38;10.27;;;5.20;;
65831;SDS011;52593;42.648;23.332;2023-04-25T09:14:10;10.73;;;5.40;;
65831;SDS011;52593;42.648;23.332;2023-04-25T09:16:59;11.25;;;5.65;;
65831;SDS011;52593;42.648;23.332;2023-04-25T09:21:58;13.40;;;6.13;;
65831;SDS011;52593;42.648;23.332;2023-04-25T09:24:41;12.05;;;5.80;;
65831;SDS011;52593;42.648;23.332;2023-04-25T09:27:12;11.70;;;6.47;;
65831;SDS011;52593;42.648;23.332;2023-04-25T09:29:45;12.88;;;6.35;;
65831;SDS011;52593;42.648;23.332;2023-04-25T09:34:40;10.88;;;5.25;;
65831;SDS011;52593;42.648;23.332;2023-04-25T09:37:13;13.07;;;5.72;;
65831;SDS011;52593;42.648;23.332;2023-04-25T09:39:44;11.70;;;5.88;;
65831;SDS011;52593;42.648;23.332;2023-04-25T09:42:11;16.53;;;6.30;;
65831;SDS011;52593;42.648;23.332;2023-04-25T09:44:36;12.02;;;5.38;;
65831;SDS011;52593;42.648;23.332;2023-04-25T09:47:01;12.60;;;5.20;;
65831;SDS011;52593;42.648;23.332;2023-04-25T09:49:27;10.88;;;5.10;;
65831;SDS011;52593;42.648;23.332;2023-04-25T09:51:53;9.87;;;4.90;;
65831;SDS011;52593;42.648;23.332;2023-04-25T09:54:20;10.02;;;5.07;;
65831;SDS011;52593;42.648;23.332;2023-04-25T09:56:46;10.40;;;4.70;;
65831;SDS011;52593;42.648;23.332;2023-04-25T09:59:13;8.35;;;4.00;;
65831;SDS011;52593;42.648;23.332;2023-04-25T10:01:40;7.78;;;3.90;;
65831;SDS011;52593;42.648;23.332;2023-04-25T10:04:10;7.53;;;3.83;;
65831;SDS011;52593;42.648;23.332;2023-04-25T10:06:36;7.10;;;3.70;;
65831;SDS011;52593;42.648;23.332;2023-04-25T10:09:03;6.38;;;2.50;;
65831;SDS011;52593;42.648;23.332;2023-04-25T10:11:29;13.80;;;7.28;;
65831;SDS011;52593;42.648;23.332;2023-04-25T10:13:56;8.25;;;3.72;;
65831;SDS011;52593;42.648;23.332;2023-04-25T10:16:22;6.47;;;2.30;;
65831;SDS011;52593;42.648;23.332;2023-04-25T10:18:49;4.93;;;1.20;;
65831;SDS011;52593;42.648;23.332;2023-04-25T10:21:15;3.30;;;0.70;;
65831;SDS011;52593;42.648;23.332;2023-04-25T10:23:41;3.47;;;0.50;;
65831;SDS011;52593;42.648;23.332;2023-04-25T10:26:07;4.63;;;1.50;;
65831;SDS011;52593;42.648;23.332;2023-04-25T10:31:31;2.90;;;0.90;;
65831;SDS011;52593;42.648;23.332;2023-04-25T10:33:57;3.17;;;0.60;;
65831;SDS011;52593;42.648;23.332;2023-04-25T10:36:24;2.50;;;0.65;;
65831;SDS011;52593;42.648;23.332;2023-04-25T10:38:52;5.33;;;0.80;;
65831;SDS011;52593;42.648;23.332;2023-04-25T10:41:18;3.33;;;0.57;;
65831;SDS011;52593;42.648;23.332;2023-04-25T10:43:45;2.85;;;0.65;;
65831;SDS011;52593;42.648;23.332;2023-04-25T10:48:57;3.75;;;0.85;;
65831;SDS011;52593;42.648;23.332;2023-04-25T10:51:30;2.77;;;0.70;;
65831;SDS011;52593;42.648;23.332;2023-04-25T10:56:23;2.43;;;0.60;;
65831;SDS011;52593;42.648;23.332;2023-04-25T10:58:51;3.47;;;1.00;;
65831;SDS011;52593;42.648;23.332;2023-04-25T11:01:20;4.65;;;0.82;;
65831;SDS011;52593;42.648;23.332;2023-04-25T11:03:46;2.93;;;0.77;;
65831;SDS011;52593;42.648;23.332;2023-04-25T11:09:08;5.22;;;1.20;;
65831;SDS011;52593;42.648;23.332;2023-04-25T11:11:38;5.65;;;1.60;;
65831;SDS011;52593;42.648;23.332;2023-04-25T11:14:03;3.83;;;0.83;;
65831;SDS011;52593;42.648;23.332;2023-04-25T11:16:29;4.63;;;0.80;;
65831;SDS011;52593;42.648;23.332;2023-04-25T11:18:57;4.07;;;0.90;;
65831;SDS011;52593;42.648;23.332;2023-04-25T11:21:22;4.38;;;0.73;;
65831;SDS011;52593;42.648;23.332;2023-04-25T11:23:48;2.93;;;0.63;;
65831;SDS011;52593;42.648;23.332;2023-04-25T11:26:14;6.97;;;0.95;;
65831;SDS011;52593;42.648;23.332;2023-04-25T11:28:40;2.90;;;0.60;;
65831;SDS011;52593;42.648;23.332;2023-04-25T11:31:05;2.90;;;0.68;;
65831;SDS011;52593;42.648;23.332;2023-04-25T11:33:30;3.60;;;0.70;;
65831;SDS011;52593;42.648;23.332;2023-04-25T11:35:56;4.67;;;0.60;;
65831;SDS011;52593;42.648;23.332;2023-04-25T11:38:22;4.15;;;0.70;;
65831;SDS011;52593;42.648;23.332;2023-04-25T11:40:52;3.00;;;0.60;;
65831;SDS011;52593;42.648;23.332;2023-04-25T11:43:20;3.28;;;0.60;;
65831;SDS011;52593;42.648;23.332;2023-04-25T11:45:47;4.20;;;0.70;;
65831;SDS011;52593;42.648;23.332;2023-04-25T11:48:13;3.17;;;0.70;;
65831;SDS011;52593;42.648;23.332;2023-04-25T11:50:39;3.10;;;0.80;;
65831;SDS011;52593;42.648;23.332;2023-04-25T11:53:05;3.70;;;0.80;;
65831;SDS011;52593;42.648;23.332;2023-04-25T11:55:31;2.93;;;0.70;;
65831;SDS011;52593;42.648;23.332;2023-04-25T11:57:56;3.83;;;0.70;;
65831;SDS011;52593;42.648;23.332;2023-04-25T12:00:25;4.63;;;1.10;;
65831;SDS011;52593;42.648;23.332;2023-04-25T12:02:55;5.57;;;1.00;;
65831;SDS011;52593;42.648;23.332;2023-04-25T12:05:27;3.35;;;0.93;;
65831;SDS011;52593;42.648;23.332;2023-04-25T12:07:54;5.30;;;1.00;;
65831;SDS011;52593;42.648;23.332;2023-04-25T12:10:20;3.00;;;0.90;;
65831;SDS011;52593;42.648;23.332;2023-04-25T12:12:46;3.40;;;1.02;;
65831;SDS011;52593;42.648;23.332;2023-04-25T12:15:14;5.03;;;1.10;;
65831;SDS011;52593;42.648;23.332;2023-04-25T12:17:44;3.67;;;1.20;;
65831;SDS011;52593;42.648;23.332;2023-04-25T12:20:14;5.68;;;1.52;;
65831;SDS011;52593;42.648;23.332;2023-04-25T12:22:41;3.67;;;1.20;;
65831;SDS011;52593;42.648;23.332;2023-04-25T12:25:12;6.22;;;1.20;;
65831;SDS011;52593;42.648;23.332;2023-04-25T12:27:38;4.28;;;1.20;;
65831;SDS011;52593;42.648;23.332;2023-04-25T12:30:08;10.63;;;2.60;;
65831;SDS011;52593;42.648;23.332;2023-04-25T12:32:35;5.03;;;1.80;;
65831;SDS011;52593;42.648;23.332;2023-04-25T12:35:01;9.23;;;3.23;;
65831;SDS011;52593;42.648;23.332;2023-04-25T12:37:28;4.93;;;1.15;;
65831;SDS011;52593;42.648;23.332;2023-04-25T12:39:53;3.33;;;0.80;;
65831;SDS011;52593;42.648;23.332;2023-04-25T12:42:19;4.07;;;0.70;;
65831;SDS011;52593;42.648;23.332;2023-04-25T12:44:44;2.57;;;0.50;;
65831;SDS011;52593;42.648;23.332;2023-04-25T12:47:10;4.33;;;0.73;;
65831;SDS011;52593;42.648;23.332;2023-04-25T12:49:35;4.15;;;0.73;;
65831;SDS011;52593;42.648;23.332;2023-04-25T12:52:00;3.47;;;0.60;;
65831;SDS011;52593;42.648;23.332;2023-04-25T12:54:26;3.43;;;0.70;;
65831;SDS011;52593;42.648;23.332;2023-04-25T12:56:51;3.70;;;0.70;;
65831;SDS011;52593;42.648;23.332;2023-04-25T12:59:17;5.00;;;1.10;;
65831;SDS011;52593;42.648;23.332;2023-04-25T13:01:43;4.45;;;0.90;;
65831;SDS011;52593;42.648;23.332;2023-04-25T13:04:10;3.00;;;0.60;;
65831;SDS011;52593;42.648;23.332;2023-04-25T13:06:35;5.82;;;0.80;;
65831;SDS011;52593;42.648;23.332;2023-04-25T13:09:01;4.20;;;0.90;;
65831;SDS011;52593;42.648;23.332;2023-04-25T13:11:26;3.63;;;1.00;;
65831;SDS011;52593;42.648;23.332;2023-04-25T13:13:52;4.03;;;1.00;;
65831;SDS011;52593;42.648;23.332;2023-04-25T13:16:17;5.17;;;1.30;;
65831;SDS011;52593;42.648;23.332;2023-04-25T13:18:45;3.60;;;1.17;;
65831;SDS011;52593;42.648;23.332;2023-04-25T13:21:11;4.97;;;1.00;;
65831;SDS011;52593;42.648;23.332;2023-04-25T13:23:36;4.43;;;1.20;;
65831;SDS011;52593;42.648;23.332;2023-04-25T13:26:02;4.30;;;1.20;;
65831;SDS011;52593;42.648;23.332;2023-04-25T13:28:27;5.47;;;1.20;;
65831;SDS011;52593;42.648;23.332;2023-04-25T13:30:53;6.80;;;1.47;;
65831;SDS011;52593;42.648;23.332;2023-04-25T13:33:19;4.85;;;1.42;;
65831;SDS011;52593;42.648;23.332;2023-04-25T13:35:45;7.07;;;2.72;;
65831;SDS011;52593;42.648;23.332;2023-04-25T13:38:14;4.30;;;1.50;;
65831;SDS011;52593;42.648;23.332;2023-04-25T13:40:40;5.53;;;2.15;;
65831;SDS011;52593;42.648;23.332;2023-04-25T13:43:05;10.67;;;8.07;;
65831;SDS011;52593;42.648;23.332;2023-04-25T13:45:31;5.47;;;2.75;;
65831;SDS011;52593;42.648;23.332;2023-04-25T13:47:57;4.60;;;1.90;;
65831;SDS011;52593;42.648;23.332;2023-04-25T13:50:22;4.80;;;1.47;;
65831;SDS011;52593;42.648;23.332;2023-04-25T13:52:48;3.78;;;1.30;;
65831;SDS011;52593;42.648;23.332;2023-04-25T13:55:13;5.37;;;1.20;;
65831;SDS011;52593;42.648;23.332;2023-04-25T13:57:39;3.83;;;1.10;;
65831;SDS011;52593;42.648;23.332;2023-04-25T14:00:04;3.88;;;1.13;;
65831;SDS011;52593;42.648;23.332;2023-04-25T14:02:37;4.20;;;1.10;;
65831;SDS011;52593;42.648;23.332;2023-04-25T14:05:03;3.50;;;1.13;;
65831;SDS011;52593;42.648;23.332;2023-04-25T14:07:29;5.68;;;1.00;;
65831;SDS011;52593;42.648;23.332;2023-04-25T14:09:55;3.07;;;0.80;;
65831;SDS011;52593;42.648;23.332;2023-04-25T14:12:22;3.67;;;0.90;;
65831;SDS011;52593;42.648;23.332;2023-04-25T14:14:48;5.25;;;2.63;;
65831;SDS011;52593;42.648;23.332;2023-04-25T14:17:13;4.37;;;1.20;;
65831;SDS011;52593;42.648;23.332;2023-04-25T14:19:38;3.17;;;1.00;;
65831;SDS011;52593;42.648;23.332;2023-04-25T14:22:08;4.55;;;1.08;;
65831;SDS011;52593;42.648;23.332;2023-04-25T14:24:33;2.78;;;0.50;;
65831;SDS011;52593;42.648;23.332;2023-04-25T14:26:59;2.60;;;0.57;;
65831;SDS011;52593;42.648;23.332;2023-04-25T14:29:25;3.17;;;0.70;;
65831;SDS011;52593;42.648;23.332;2023-04-25T14:31:51;2.40;;;0.50;;
65831;SDS011;52593;42.648;23.332;2023-04-25T14:34:16;3.17;;;0.80;;
65831;SDS011;52593;42.648;23.332;2023-04-25T14:36:42;4.63;;;1.10;;
65831;SDS011;52593;42.648;23.332;2023-04-25T14:39:07;4.03;;;1.30;;